Time;durP1;ratioP1;P1;durP2;ratioP2;P2;SDS_P1;SDS_P2;PMS_P1;PMS_P2;Temp;Humidity;BMP_temperature;BMP_pressure;BME280_temperature;BME280_humidity;BME280_pressure;Samples;Min_cycle;Max_cycle;Signal;HPM_P1;HPM_P2
2022/03/21 00:00:48;;;;;;;2.05;1.65;;;20.60;55.10;;;;;;5091053;28;20277;-57
2022/03/21 00:03:19;;;;;;;2.50;1.75;;;20.60;55.10;;;;;;5088476;28;20247;-53
2022/03/21 00:05:50;;;;;;;2.67;1.90;;;20.60;55.10;;;;;;5089537;28;20213;-57
2022/03/21 00:08:22;;;;;;;2.38;1.95;;;20.60;55.10;;;;;;5090269;28;21461;-58
2022/03/21 00:10:54;;;;;;;1.92;1.63;;;20.70;55.20;;;;;;5090001;28;20807;-57
2022/03/21 00:13:26;;;;;;;1.83;1.70;;;20.70;55.20;;;;;;5090263;28;20221;-56
2022/03/21 00:15:58;;;;;;;2.80;1.92;;;20.70;55.20;;;;;;5090183;28;20196;-56
2022/03/21 00:18:29;;;;;;;1.65;1.50;;;20.70;55.20;;;;;;5090569;28;20206;-56
2022/03/21 00:21:00;;;;;;;1.88;1.70;;;20.70;55.20;;;;;;5090141;28;20206;-55
2022/03/21 00:23:31;;;;;;;3.15;1.67;;;20.80;55.30;;;;;;5090756;28;20198;-56
2022/03/21 00:26:02;;;;;;;4.55;1.65;;;20.80;55.30;;;;;;5089483;28;20226;-50
2022/03/21 00:28:34;;;;;;;2.28;1.73;;;20.80;55.30;;;;;;5090909;28;20235;-56
2022/03/21 00:31:05;;;;;;;2.15;1.50;;;20.80;55.30;;;;;;5090658;28;20244;-57
2022/03/21 00:33:36;;;;;;;2.33;1.65;;;20.80;55.20;;;;;;5089895;28;20235;-57
2022/03/21 00:36:08;;;;;;;2.10;1.55;;;20.80;55.20;;;;;;5086089;28;20190;-56
2022/03/21 00:38:39;;;;;;;1.85;1.70;;;20.90;55.20;;;;;;5083772;28;20195;-56
2022/03/21 00:41:09;;;;;;;2.55;1.65;;;20.90;55.20;;;;;;5088340;28;20186;-57
2022/03/21 00:43:43;;;;;;;2.00;1.80;;;20.90;55.20;;;;;;5087367;28;20194;-57
2022/03/21 00:46:13;;;;;;;2.75;1.52;;;20.90;55.20;;;;;;5089802;28;20252;-56
2022/03/21 00:48:44;;;;;;;2.35;1.65;;;20.90;55.20;;;;;;5089402;28;20250;-55
2022/03/21 00:51:14;;;;;;;2.10;1.90;;;21.00;55.30;;;;;;5088427;28;20218;-56
2022/03/21 00:53:45;;;;;;;3.00;2.00;;;21.00;55.30;;;;;;5089336;28;20191;-56
2022/03/21 00:56:15;;;;;;;2.50;1.90;;;21.00;55.30;;;;;;5090120;28;20213;-56
2022/03/21 00:58:48;;;;;;;2.10;1.60;;;21.00;55.30;;;;;;5089547;28;20271;-56
2022/03/21 01:01:18;;;;;;;3.83;1.85;;;21.00;55.40;;;;;;5089235;28;20190;-56
2022/03/21 01:03:49;;;;;;;3.13;1.98;;;21.00;55.40;;;;;;5089713;28;20847;-56
2022/03/21 01:06:22;;;;;;;2.05;1.63;;;21.00;55.40;;;;;;5088981;28;20736;-54
2022/03/21 01:08:52;;;;;;;3.63;1.88;;;21.10;55.50;;;;;;5089336;28;20190;-56
2022/03/21 01:11:24;;;;;;;3.75;2.00;;;21.10;55.50;;;;;;5035688;22;20280;-57
2022/03/21 01:13:56;;;;;;;3.63;1.73;;;21.10;55.50;;;;;;4989818;28;20647;-58
2022/03/21 01:16:27;;;;;;;2.53;1.88;;;21.20;55.60;;;;;;4988941;28;20214;-58
2022/03/21 01:18:57;;;;;;;3.45;1.92;;;21.10;55.50;;;;;;4989924;28;20244;-58
2022/03/21 01:21:28;;;;;;;2.88;1.92;;;21.10;55.50;;;;;;4989509;28;20724;-56
2022/03/21 01:23:58;;;;;;;3.15;1.80;;;21.20;55.50;;;;;;4989866;28;20244;-55
2022/03/21 01:26:29;;;;;;;2.53;1.92;;;21.10;55.40;;;;;;4990180;28;20756;-56
2022/03/21 01:29:02;;;;;;;3.25;1.90;;;21.20;55.50;;;;;;4987996;28;20202;-56
2022/03/21 01:31:32;;;;;;;2.50;1.60;;;21.20;55.50;;;;;;4987298;28;20312;-56
2022/03/21 01:34:03;;;;;;;3.00;1.92;;;21.20;55.50;;;;;;4989380;28;20257;-56
2022/03/21 01:36:34;;;;;;;3.00;1.95;;;21.30;55.50;;;;;;4988487;28;20653;-55
2022/03/21 01:39:05;;;;;;;2.47;1.80;;;21.20;55.50;;;;;;4989510;28;20197;-56
2022/03/21 01:41:35;;;;;;;2.38;1.60;;;21.30;55.60;;;;;;4988891;28;20198;-56
2022/03/21 01:44:09;;;;;;;3.47;1.90;;;21.30;55.60;;;;;;4989695;28;20206;-57
2022/03/21 01:46:41;;;;;;;2.47;1.70;;;21.30;55.50;;;;;;4989549;28;20221;-57
2022/03/21 01:49:13;;;;;;;3.30;2.00;;;21.30;55.60;;;;;;4987385;28;20196;-58
2022/03/21 01:51:44;;;;;;;3.40;2.17;;;21.30;55.60;;;;;;4989353;28;20256;-56
2022/03/21 01:57:02;;;;;;;3.13;2.13;;;21.30;55.60;;;;;;4989382;28;20307;-58
2022/03/21 01:59:36;;;;;;;4.68;2.22;;;21.40;55.70;;;;;;4989146;28;20197;-55
2022/03/21 02:02:07;;;;;;;3.70;2.08;;;21.40;55.70;;;;;;4989168;28;20307;-56
2022/03/21 02:04:38;;;;;;;3.63;2.00;;;21.40;55.70;;;;;;4985953;28;20194;-56
2022/03/21 02:07:09;;;;;;;3.88;2.40;;;21.40;55.80;;;;;;4970389;28;20226;-56
2022/03/21 02:12:19;;;;;;;3.05;2.10;;;21.50;55.80;;;;;;4998251;28;20235;-56
2022/03/21 02:14:52;;;;;;;4.47;2.40;;;21.50;55.70;;;;;;5008661;28;20291;-59
2022/03/21 02:17:24;;;;;;;2.95;1.95;;;21.50;55.70;;;;;;4996705;28;20217;-55
2022/03/21 02:19:57;;;;;;;3.45;1.95;;;21.50;55.70;;;;;;4989024;28;20305;-57
2022/03/21 02:22:35;;;;;;;3.08;1.80;;;21.60;55.70;;;;;;4970510;28;20590;-58
2022/03/21 02:25:34;;;;;;;2.72;1.90;;;21.50;55.70;;;;;;4982594;28;20279;-59
2022/03/21 02:28:07;;;;;;;2.35;1.85;;;21.60;55.70;;;;;;4990015;28;20222;-59
2022/03/21 02:30:39;;;;;;;3.08;1.85;;;21.60;56.20;;;;;;4989921;28;20272;-59
2022/03/21 02:33:11;;;;;;;3.60;2.03;;;21.60;55.60;;;;;;4990138;28;20193;-57
2022/03/21 02:35:43;;;;;;;2.75;1.77;;;21.60;55.60;;;;;;4989874;28;20200;-58
2022/03/21 02:38:15;;;;;;;3.47;2.45;;;21.60;55.60;;;;;;4990426;28;20268;-58
2022/03/21 02:40:48;;;;;;;3.70;2.08;;;21.60;55.60;;;;;;4988038;28;20268;-59
2022/03/21 02:43:19;;;;;;;3.22;2.13;;;21.70;55.70;;;;;;4988245;28;20200;-58
2022/03/21 02:45:49;;;;;;;2.92;1.65;;;21.70;55.70;;;;;;4988739;28;20202;-58
2022/03/21 02:48:20;;;;;;;4.05;2.20;;;21.70;55.80;;;;;;4989263;28;20619;-58
2022/03/21 02:51:01;;;;;;;3.40;1.70;;;21.70;55.80;;;;;;4992610;28;20228;-59
2022/03/21 02:53:35;;;;;;;3.15;1.80;;;21.70;55.80;;;;;;4994056;28;20280;-59
2022/03/21 02:56:08;;;;;;;4.45;2.30;;;21.70;55.80;;;;;;4992702;28;20224;-60
2022/03/21 02:58:38;;;;;;;4.18;2.28;;;21.70;56.10;;;;;;4992041;28;20276;-55
2022/03/21 03:01:13;;;;;;;4.95;2.13;;;21.80;56.20;;;;;;4992423;28;20201;-59
2022/03/21 03:03:44;;;;;;;5.40;2.42;;;21.80;56.30;;;;;;4992255;28;20251;-58
2022/03/21 03:06:15;;;;;;;3.45;2.28;;;21.80;56.30;;;;;;4992360;28;20291;-59
2022/03/21 03:08:46;;;;;;;3.38;2.10;;;21.80;56.40;;;;;;4991941;28;20272;-60
2022/03/21 03:11:19;;;;;;;3.58;2.38;;;21.80;56.90;;;;;;4991743;28;20569;-60
2022/03/21 03:13:49;;;;;;;3.60;2.28;;;21.90;56.20;;;;;;4991838;28;20248;-58
2022/03/21 03:16:20;;;;;;;4.57;2.20;;;21.80;56.10;;;;;;4992323;28;20218;-59
2022/03/21 03:18:51;;;;;;;3.63;2.10;;;21.90;56.10;;;;;;4991380;28;20264;-60
2022/03/21 03:21:23;;;;;;;2.55;2.00;;;21.90;56.20;;;;;;4991867;28;20674;-61
2022/03/21 03:23:55;;;;;;;4.22;2.10;;;21.90;56.30;;;;;;4991469;28;20660;-56
2022/03/21 03:26:27;;;;;;;4.03;2.50;;;21.90;56.30;;;;;;4991819;28;20688;-59
2022/03/21 03:28:58;;;;;;;7.00;2.47;;;21.90;56.40;;;;;;4991812;28;20193;-59
2022/03/21 03:31:29;;;;;;;2.08;1.70;;;21.90;56.40;;;;;;4991453;28;20268;-56
2022/03/21 03:34:00;;;;;;;2.97;2.10;;;21.90;56.40;;;;;;4991437;28;20193;-58
2022/03/21 03:36:30;;;;;;;5.53;2.53;;;21.90;56.30;;;;;;4991741;28;20217;-59
2022/03/21 03:39:01;;;;;;;2.55;2.10;;;21.90;56.40;;;;;;4991809;28;20194;-58
2022/03/21 03:41:34;;;;;;;3.38;1.90;;;21.90;56.30;;;;;;4991877;28;20194;-59
2022/03/21 03:44:04;;;;;;;3.33;2.30;;;21.90;56.20;;;;;;4991497;28;20209;-59
2022/03/21 03:46:35;;;;;;;3.70;2.00;;;21.90;56.10;;;;;;4991427;28;20221;-59
2022/03/21 03:49:05;;;;;;;2.63;1.88;;;21.90;56.10;;;;;;4990339;28;20197;-58
2022/03/21 03:51:36;;;;;;;2.92;1.90;;;21.90;56.10;;;;;;4991144;28;20225;-59
2022/03/21 03:54:06;;;;;;;4.15;1.73;;;22.00;56.20;;;;;;4990633;28;20201;-58
2022/03/21 03:56:39;;;;;;;2.97;1.83;;;22.00;56.10;;;;;;4990795;28;20225;-58
2022/03/21 03:59:10;;;;;;;3.65;2.00;;;22.00;56.00;;;;;;4990588;28;20252;-59
2022/03/21 04:01:40;;;;;;;4.47;2.10;;;22.00;55.90;;;;;;4990975;28;20197;-59
2022/03/21 04:04:11;;;;;;;3.30;2.10;;;22.00;56.00;;;;;;4991637;28;20202;-59
2022/03/21 04:06:44;;;;;;;3.13;2.00;;;22.00;56.00;;;;;;4990640;28;20225;-55
2022/03/21 04:09:14;;;;;;;2.90;2.00;;;22.00;56.10;;;;;;4991029;28;20190;-59
2022/03/21 04:11:47;;;;;;;2.75;1.80;;;22.00;56.20;;;;;;5059858;23;20283;-58
2022/03/21 04:14:17;;;;;;;2.20;1.80;;;22.00;56.40;;;;;;5069944;28;20191;-55
2022/03/21 04:16:48;;;;;;;2.75;2.03;;;22.00;56.30;;;;;;5068930;28;20528;-51
2022/03/21 04:19:18;;;;;;;1.90;1.80;;;22.00;56.30;;;;;;5068906;28;20191;-51
2022/03/21 04:21:49;;;;;;;2.75;2.13;;;22.00;56.30;;;;;;5069122;28;20187;-55
2022/03/21 04:24:20;;;;;;;2.63;1.65;;;22.00;56.20;;;;;;5068690;28;20199;-56
2022/03/21 04:26:52;;;;;;;2.63;1.73;;;22.00;56.20;;;;;;5069269;28;20218;-54
2022/03/21 04:29:23;;;;;;;3.00;1.77;;;22.00;56.20;;;;;;5068454;28;20199;-51
2022/03/21 04:31:53;;;;;;;3.13;2.00;;;22.00;56.10;;;;;;5069998;28;20313;-57
2022/03/21 04:34:24;;;;;;;3.97;2.05;;;22.00;56.00;;;;;;5069400;28;20241;-53
2022/03/21 04:36:55;;;;;;;3.45;1.67;;;22.00;56.00;;;;;;5069484;28;20256;-53
2022/03/21 04:39:25;;;;;;;2.35;1.90;;;22.00;56.00;;;;;;5069259;28;20187;-50
2022/03/21 04:41:57;;;;;;;2.55;1.80;;;22.00;56.10;;;;;;5069880;28;20191;-50
2022/03/21 04:44:28;;;;;;;2.78;1.83;;;22.00;56.10;;;;;;5067841;28;20199;-55
2022/03/21 04:46:59;;;;;;;2.53;1.50;;;22.00;56.00;;;;;;5069023;28;20211;-56
2022/03/21 04:49:29;;;;;;;2.10;1.65;;;22.00;56.00;;;;;;5069482;28;20771;-59
2022/03/21 04:52:00;;;;;;;1.60;1.50;;;22.00;55.90;;;;;;5068923;28;20226;-59
2022/03/21 04:54:30;;;;;;;2.75;1.77;;;22.00;55.90;;;;;;5052426;28;20204;-57
2022/03/21 04:57:05;;;;;;;2.22;1.75;;;22.00;55.90;;;;;;5037340;28;20211;-58
2022/03/21 04:59:36;;;;;;;3.35;2.00;;;22.00;56.00;;;;;;5050160;28;20195;-54
2022/03/21 05:02:07;;;;;;;2.03;1.75;;;22.00;56.10;;;;;;5049580;28;20249;-53
2022/03/21 05:04:38;;;;;;;2.33;1.70;;;22.00;56.10;;;;;;5049162;28;20199;-54
2022/03/21 05:07:09;;;;;;;2.05;1.80;;;22.00;56.10;;;;;;5049045;28;20908;-58
2022/03/21 05:09:41;;;;;;;4.05;2.05;;;22.00;56.10;;;;;;5048726;28;20651;-58
2022/03/21 05:12:15;;;;;;;3.53;1.80;;;22.00;56.10;;;;;;5049097;28;20227;-59
2022/03/21 05:14:45;;;;;;;1.83;1.60;;;22.00;56.20;;;;;;5050428;28;20670;-66
2022/03/21 05:17:17;;;;;;;3.38;1.70;;;22.00;56.20;;;;;;5050318;28;20223;-58
2022/03/21 05:19:48;;;;;;;1.98;1.52;;;22.00;56.30;;;;;;5050209;28;20690;-59
2022/03/21 05:22:18;;;;;;;3.08;1.63;;;22.00;56.30;;;;;;5050288;28;20241;-54
2022/03/21 05:35:57;;;;;;;2.45;1.95;;;22.00;56.50;;;;;;5068256;28;20283;-58
2022/03/21 05:38:29;;;;;;;3.17;1.65;;;22.00;56.50;;;;;;5066665;28;20583;-57
2022/03/21 05:41:02;;;;;;;2.78;1.63;;;22.00;56.40;;;;;;5068261;28;20194;-55
2022/03/21 05:43:35;;;;;;;1.48;1.38;;;22.00;56.40;;;;;;5068693;28;20194;-60
2022/03/21 05:46:06;;;;;;;1.63;1.40;;;22.00;56.40;;;;;;5067939;28;20251;-57
2022/03/21 05:48:54;;;;;;;3.67;1.95;;;22.00;56.50;;;;;;5068143;28;20195;-59
2022/03/21 05:51:27;;;;;;;1.90;1.58;;;22.00;56.50;;;;;;5068182;28;20198;-60
2022/03/21 05:53:58;;;;;;;5.35;3.40;;;22.00;56.50;;;;;;5069166;28;20730;-60
2022/03/21 05:56:29;;;;;;;3.28;2.97;;;22.00;56.60;;;;;;5068378;28;20719;-55
2022/03/21 06:00:20;;;;;;;3.10;2.78;;;22.00;56.70;;;;;;5068169;28;20186;-57
2022/03/21 06:01:53;;;;;;;3.03;2.55;;;21.90;57.30;;;;;;5068342;28;20735;-61
2022/03/21 06:04:23;;;;;;;4.15;3.00;;;22.00;56.70;;;;;;5067466;28;20241;-60
2022/03/21 06:06:55;;;;;;;2.35;2.15;;;21.90;56.60;;;;;;5068222;28;20221;-60
2022/03/21 06:09:25;;;;;;;3.25;2.53;;;22.00;56.50;;;;;;5068711;28;20195;-54
2022/03/21 06:11:56;;;;;;;4.10;3.40;;;21.90;56.50;;;;;;5068231;28;20226;-59
2022/03/21 06:14:28;;;;;;;3.95;3.40;;;21.90;56.50;;;;;;5067888;28;20199;-53
2022/03/21 06:16:59;;;;;;;4.53;3.90;;;21.90;56.50;;;;;;5067614;28;20210;-60
2022/03/21 06:19:29;;;;;;;4.65;3.78;;;21.90;56.50;;;;;;5067783;28;20191;-60
2022/03/21 06:22:00;;;;;;;3.95;3.55;;;21.90;56.60;;;;;;5067826;28;20240;-59
2022/03/21 06:24:31;;;;;;;5.15;3.40;;;21.90;56.60;;;;;;5071361;28;20195;-59
2022/03/21 06:27:01;;;;;;;4.70;3.20;;;21.90;56.50;;;;;;5072240;28;20271;-59
2022/03/21 06:29:34;;;;;;;4.45;3.53;;;21.90;56.60;;;;;;5072343;28;20199;-58
2022/03/21 06:32:04;;;;;;;3.55;3.05;;;21.90;56.60;;;;;;5072577;28;20237;-60
2022/03/21 06:34:35;;;;;;;3.85;3.08;;;21.90;56.50;;;;;;5071933;28;20199;-59
2022/03/21 06:37:06;;;;;;;4.47;3.25;;;21.90;56.50;;;;;;5072167;28;20214;-59
2022/03/21 06:39:36;;;;;;;3.22;2.92;;;21.90;56.50;;;;;;5070389;28;20226;-59
2022/03/21 06:42:08;;;;;;;3.97;3.10;;;21.90;56.50;;;;;;5070758;28;20780;-54
2022/03/21 06:44:41;;;;;;;4.65;3.25;;;21.90;56.60;;;;;;5071856;28;20195;-60
2022/03/21 06:47:12;;;;;;;4.05;2.95;;;21.90;56.60;;;;;;5071124;28;20222;-59
2022/03/21 06:49:42;;;;;;;3.50;3.20;;;21.90;56.50;;;;;;5071817;28;20268;-60
2022/03/21 06:52:13;;;;;;;3.78;3.10;;;21.90;56.60;;;;;;5034355;28;20224;-58
2022/03/21 06:54:45;;;;;;;4.38;2.90;;;21.90;56.60;;;;;;5033908;28;20204;-60
2022/03/21 06:57:16;;;;;;;3.67;3.17;;;21.80;56.80;;;;;;5032959;28;20649;-59
2022/03/21 06:59:48;;;;;;;4.30;3.40;;;21.80;56.90;;;;;;5032229;28;20278;-57
2022/03/21 07:02:19;;;;;;;4.22;3.00;;;21.80;56.90;;;;;;5032796;28;20200;-60
2022/03/21 07:04:50;;;;;;;3.65;2.60;;;21.80;56.80;;;;;;5032960;28;20204;-57
2022/03/21 07:07:21;;;;;;;4.03;2.90;;;21.80;57.40;;;;;;5051626;28;20281;-60
2022/03/21 07:09:51;;;;;;;4.45;2.92;;;21.80;57.00;;;;;;5052892;28;20721;-60
2022/03/21 07:12:24;;;;;;;3.70;2.92;;;21.80;57.10;;;;;;5046661;22;20722;-58
2022/03/21 07:14:56;;;;;;;5.82;3.67;;;21.80;57.10;;;;;;5032737;28;20200;-58
2022/03/21 07:17:27;;;;;;;3.72;2.92;;;21.80;57.20;;;;;;5032698;28;20275;-52
2022/03/21 07:19:57;;;;;;;5.28;3.40;;;21.80;57.10;;;;;;5033034;28;20195;-55
2022/03/21 07:22:28;;;;;;;5.50;3.03;;;21.80;57.40;;;;;;5017752;28;20197;-55
2022/03/21 07:24:58;;;;;;;4.78;3.33;;;21.80;57.40;;;;;;5013134;28;20201;-55
2022/03/21 07:27:29;;;;;;;4.45;3.00;;;21.80;57.60;;;;;;5012590;28;20204;-55
2022/03/21 07:30:03;;;;;;;4.75;3.03;;;21.80;57.50;;;;;;5013186;28;20296;-55
2022/03/21 07:32:34;;;;;;;5.75;3.15;;;21.80;57.60;;;;;;5012974;28;20904;-55
2022/03/21 07:35:05;;;;;;;4.68;2.80;;;21.80;57.70;;;;;;5012257;28;20302;-55
2022/03/21 07:37:43;;;;;;;7.10;3.38;;;21.80;57.80;;;;;;5012834;28;20224;-50
2022/03/21 07:40:14;;;;;;;5.93;2.95;;;21.80;57.70;;;;;;5013011;28;20611;-49
2022/03/21 07:42:47;;;;;;;13.80;3.40;;;21.80;58.70;;;;;;5026799;28;20208;-48
2022/03/21 07:48:07;;;;;;;19.90;10.43;;;21.70;62.00;;;;;;5032609;28;20754;-57
2022/03/21 07:50:37;;;;;;;16.02;9.75;;;21.70;65.00;;;;;;5032337;28;20196;-52
2022/03/21 07:53:08;;;;;;;20.42;9.82;;;21.70;66.00;;;;;;5013429;28;20228;-50
2022/03/21 07:55:39;;;;;;;15.95;8.55;;;21.70;66.30;;;;;;5012187;28;20197;-54
2022/03/21 07:58:09;;;;;;;14.50;7.78;;;21.70;66.10;;;;;;5011967;28;20224;-56
2022/03/21 08:00:43;;;;;;;16.65;7.63;;;21.70;65.70;;;;;;5012152;28;20914;-52
2022/03/21 08:03:15;;;;;;;16.00;7.00;;;21.70;65.30;;;;;;5012248;28;20283;-55
2022/03/21 08:05:46;;;;;;;16.33;6.93;;;21.70;64.90;;;;;;5012192;28;20236;-54
2022/03/21 08:08:17;;;;;;;13.20;6.57;;;21.70;64.60;;;;;;5011828;28;20808;-52
2022/03/21 08:10:48;;;;;;;13.07;6.50;;;21.70;64.30;;;;;;5048486;22;20805;-56
2022/03/21 08:13:19;;;;;;;11.95;6.15;;;21.70;64.00;;;;;;5031639;28;20619;-55
2022/03/21 08:15:51;;;;;;;11.02;6.15;;;21.70;63.80;;;;;;5031775;28;20196;-56
2022/03/21 08:18:22;;;;;;;13.65;6.28;;;21.70;63.60;;;;;;5012058;28;20251;-56
2022/03/21 08:20:52;;;;;;;10.68;5.72;;;21.70;63.40;;;;;;5012099;28;20197;-56
2022/03/21 08:23:23;;;;;;;9.98;5.65;;;21.70;63.10;;;;;;5011446;28;20661;-56
2022/03/21 08:25:57;;;;;;;11.55;4.93;;;21.70;63.10;;;;;;5011818;28;20622;-56
2022/03/21 08:28:27;;;;;;;10.43;4.88;;;21.70;62.90;;;;;;5011304;28;20203;-56
2022/03/21 08:31:00;;;;;;;12.95;5.50;;;21.70;62.50;;;;;;5011600;28;20259;-56
2022/03/21 08:33:30;;;;;;;11.80;5.15;;;21.70;62.40;;;;;;5011734;28;20220;-57
2022/03/21 08:36:01;;;;;;;10.00;4.65;;;21.70;62.20;;;;;;5008589;28;20603;-57
2022/03/21 08:38:32;;;;;;;10.60;5.10;;;21.70;61.90;;;;;;5011717;28;20197;-56
2022/03/21 08:41:02;;;;;;;11.07;4.55;;;21.70;61.70;;;;;;5026821;28;20192;-56
2022/03/21 08:43:33;;;;;;;11.43;4.60;;;21.70;61.60;;;;;;5029224;28;20192;-57
2022/03/21 08:46:05;;;;;;;9.85;4.72;;;21.70;61.30;;;;;;5018962;28;20192;-56
2022/03/21 08:51:23;;;;;;;8.63;4.30;;;21.70;61.10;;;;;;5010287;28;20207;-56
2022/03/21 08:53:54;;;;;;;8.77;4.05;;;21.60;61.00;;;;;;5009419;28;20311;-56
2022/03/21 08:56:25;;;;;;;7.88;3.75;;;21.60;61.00;;;;;;5009822;28;20283;-57
2022/03/21 08:58:56;;;;;;;8.95;4.50;;;21.60;61.00;;;;;;5009471;28;20213;-56
2022/03/21 09:01:28;;;;;;;8.38;4.00;;;21.60;61.00;;;;;;5018247;28;20651;-56
2022/03/21 09:04:00;;;;;;;11.43;3.85;;;21.60;61.00;;;;;;5029489;28;20262;-56
2022/03/21 09:06:31;;;;;;;7.05;4.40;;;21.60;61.00;;;;;;5028134;28;20903;-56
2022/03/21 09:09:01;;;;;;;7.20;3.65;;;21.60;60.90;;;;;;5021418;28;20192;-56
2022/03/21 09:27:11;;;;;;;8.02;3.60;;;21.60;60.10;;;;;;5229857;23;20219;-55
2022/03/21 09:29:41;;;;;;;6.60;3.45;;;21.60;60.00;;;;;;5046688;28;20199;-56
2022/03/21 09:32:12;;;;;;;7.43;3.55;;;21.60;60.00;;;;;;5049106;28;20199;-52
2022/03/21 09:34:43;;;;;;;7.18;3.30;;;21.50;59.80;;;;;;5048903;28;20289;-52
2022/03/21 09:37:14;;;;;;;8.90;3.70;;;21.50;59.70;;;;;;5048228;28;20208;-54
2022/03/21 09:39:44;;;;;;;6.90;3.25;;;21.50;59.70;;;;;;5048660;28;20237;-57
2022/03/21 09:42:17;;;;;;;7.00;3.15;;;21.50;59.80;;;;;;5048157;28;20199;-52
2022/03/21 09:44:53;;;;;;;7.25;3.30;;;21.50;59.80;;;;;;5048724;28;20195;-55
2022/03/21 09:50:14;;;;;;;6.97;3.20;;;21.50;60.00;;;;;;5048516;28;20210;-55
2022/03/21 09:52:46;;;;;;;7.18;3.20;;;21.50;60.00;;;;;;5047694;28;20219;-53
2022/03/21 09:55:17;;;;;;;6.18;3.03;;;21.50;60.10;;;;;;5048546;28;20250;-55
2022/03/21 09:57:49;;;;;;;9.95;3.35;;;21.50;60.10;;;;;;5048187;28;20291;-55
2022/03/21 10:00:20;;;;;;;9.52;3.50;;;21.50;60.20;;;;;;5048358;28;20192;-57
2022/03/21 10:02:50;;;;;;;6.30;2.90;;;21.50;60.10;;;;;;5048168;28;20268;-53
2022/03/21 10:05:38;;;;;;;6.38;3.10;;;21.50;60.20;;;;;;5048496;28;20245;-58
2022/03/21 10:08:18;;;;;;;5.90;2.92;;;21.40;60.20;;;;;;5047546;28;20215;-58
2022/03/21 10:10:59;;;;;;;8.68;3.42;;;21.50;60.10;;;;;;5048110;28;20198;-54
2022/03/21 10:13:33;;;;;;;6.57;2.85;;;21.40;60.00;;;;;;5048298;28;20207;-59
2022/03/21 10:16:11;;;;;;;7.22;3.20;;;21.50;60.00;;;;;;5047300;28;20727;-56
2022/03/21 10:18:57;;;;;;;6.13;2.97;;;21.40;60.00;;;;;;5047670;28;20257;-57
2022/03/21 10:21:28;;;;;;;9.30;3.05;;;21.40;60.00;;;;;;5048418;28;20195;-57
2022/03/21 10:24:06;;;;;;;7.50;3.03;;;21.40;59.90;;;;;;5047290;28;20199;-58
2022/03/21 10:26:38;;;;;;;5.32;2.70;;;21.40;59.90;;;;;;5048336;28;20214;-59
2022/03/21 10:29:12;;;;;;;5.57;2.75;;;21.40;59.90;;;;;;5048222;28;20606;-58
2022/03/21 10:31:44;;;;;;;7.97;3.08;;;21.40;59.90;;;;;;5047795;28;20763;-57
2022/03/21 10:34:16;;;;;;;10.82;3.25;;;21.40;59.90;;;;;;5047753;28;20231;-58
2022/03/21 10:37:06;;;;;;;6.18;2.90;;;21.40;60.00;;;;;;5047669;28;20222;-53
2022/03/21 10:39:38;;;;;;;8.00;3.15;;;21.40;60.10;;;;;;5048666;28;20254;-57
2022/03/21 10:42:09;;;;;;;5.75;2.53;;;21.40;60.20;;;;;;5046528;28;20225;-58
2022/03/21 10:44:42;;;;;;;7.13;3.13;;;21.40;60.20;;;;;;5048004;28;20192;-58
2022/03/21 10:47:12;;;;;;;7.05;3.05;;;21.40;60.30;;;;;;5045826;28;20281;-58
2022/03/21 10:49:44;;;;;;;6.95;2.88;;;21.40;60.30;;;;;;5047791;28;20196;-59
2022/03/21 10:52:19;;;;;;;4.97;2.28;;;21.30;60.30;;;;;;5046611;28;20287;-57
2022/03/21 10:54:53;;;;;;;6.90;2.55;;;21.30;60.20;;;;;;5047793;28;20862;-55
2022/03/21 10:57:33;;;;;;;5.43;2.70;;;21.30;60.20;;;;;;5047912;28;20230;-57
2022/03/21 11:00:20;;;;;;;5.95;2.58;;;21.40;60.10;;;;;;5048107;28;20647;-58
2022/03/21 11:02:56;;;;;;;8.43;2.70;;;21.30;60.00;;;;;;5047266;28;20188;-55
2022/03/21 11:05:27;;;;;;;8.82;2.63;;;21.30;60.20;;;;;;5047915;28;20245;-57
2022/03/21 11:07:58;;;;;;;7.95;3.00;;;21.30;60.20;;;;;;5048281;28;20219;-57
2022/03/21 11:10:30;;;;;;;9.20;2.75;;;21.30;60.10;;;;;;5049242;28;20659;-52
2022/03/21 11:13:03;;;;;;;7.13;2.90;;;21.30;60.10;;;;;;5050517;28;20203;-59
2022/03/21 11:15:36;;;;;;;6.55;2.75;;;21.30;60.30;;;;;;5051451;28;20192;-52
2022/03/21 11:18:08;;;;;;;8.35;2.83;;;21.30;60.40;;;;;;5061651;22;20227;-64
2022/03/21 11:20:38;;;;;;;5.57;2.63;;;21.30;60.40;;;;;;5050153;28;20785;-58
2022/03/21 11:23:09;;;;;;;5.78;2.55;;;21.30;60.30;;;;;;5047367;28;20195;-65
2022/03/21 11:25:42;;;;;;;7.60;2.60;;;21.30;60.30;;;;;;5035623;28;20204;-68
2022/03/21 11:28:41;;;;;;;10.10;2.80;;;21.30;60.40;;;;;;5033255;28;20278;-57
2022/03/21 11:31:56;;;;;;;7.85;2.83;;;21.20;60.50;;;;;;5031878;28;20342;-62
2022/03/21 11:34:48;;;;;;;7.22;2.97;;;21.30;60.70;;;;;;4967980;28;20236;-67
2022/03/21 11:37:29;;;;;;;8.75;3.35;;;21.30;60.80;;;;;;5031194;28;20765;-59
2022/03/21 11:40:34;;;;;;;8.55;2.85;;;21.20;60.90;;;;;;5021691;28;20197;-69
2022/03/21 11:43:32;;;;;;;7.85;2.60;;;21.20;60.90;;;;;;5011507;28;20206;-65
2022/03/21 11:46:29;;;;;;;10.10;3.33;;;21.20;61.00;;;;;;5011519;28;20843;-69
2022/03/21 11:49:01;;;;;;;8.10;2.75;;;21.30;61.00;;;;;;5012374;28;20196;-69
2022/03/21 11:51:45;;;;;;;8.55;2.67;;;21.30;60.80;;;;;;5012259;28;20200;-70
2022/03/21 11:54:31;;;;;;;9.00;3.25;;;21.20;61.00;;;;;;5011993;28;21483;-67
2022/03/21 11:57:05;;;;;;;8.25;2.40;;;21.20;61.20;;;;;;5012621;28;20221;-69
2022/03/21 11:59:56;;;;;;;8.40;2.78;;;21.20;60.90;;;;;;5012341;28;20196;-70
2022/03/21 12:03:00;;;;;;;9.25;2.55;;;21.20;61.10;;;;;;5011727;28;20653;-69
2022/03/21 12:05:54;;;;;;;7.45;2.70;;;21.20;61.00;;;;;;5011799;28;20629;-69
2022/03/21 12:08:53;;;;;;;9.02;2.90;;;21.20;60.60;;;;;;5012043;28;20247;-70
2022/03/21 12:12:01;;;;;;;8.63;2.40;;;21.20;60.70;;;;;;5006976;28;20212;-67
2022/03/21 12:14:40;;;;;;;8.20;2.70;;;21.20;60.90;;;;;;5012336;28;20220;-66
2022/03/21 12:17:30;;;;;;;7.30;2.92;;;21.10;60.80;;;;;;5012492;28;20228;-69
2022/03/21 12:20:11;;;;;;;8.27;2.70;;;21.20;61.00;;;;;;5011460;28;20197;-67
2022/03/21 12:22:47;;;;;;;8.68;2.95;;;21.20;61.20;;;;;;5011182;28;20204;-70
2022/03/21 12:25:22;;;;;;;8.40;2.92;;;21.10;61.30;;;;;;5012130;28;20254;-68
2022/03/21 12:27:55;;;;;;;5.95;2.10;;;21.20;61.50;;;;;;5012069;28;20216;-66
2022/03/21 12:30:39;;;;;;;7.97;2.42;;;21.20;61.60;;;;;;5012567;28;20696;-66
2022/03/21 12:33:30;;;;;;;6.50;2.60;;;21.20;61.70;;;;;;5031490;28;20246;-65
2022/03/21 12:36:07;;;;;;;8.15;2.63;;;21.10;61.50;;;;;;5027171;28;20193;-69
2022/03/21 12:38:39;;;;;;;6.85;2.35;;;21.20;61.60;;;;;;5031384;28;20286;-66
2022/03/21 12:41:13;;;;;;;8.27;2.88;;;21.20;61.50;;;;;;5015239;28;20197;-67
2022/03/21 12:43:52;;;;;;;7.97;2.55;;;21.20;61.40;;;;;;5022096;28;20196;-66
2022/03/21 12:46:26;;;;;;;7.97;2.70;;;21.20;61.40;;;;;;5031495;28;20216;-66
2022/03/21 12:49:01;;;;;;;11.80;3.10;;;21.10;61.20;;;;;;5031491;28;20200;-69
2022/03/21 12:51:34;;;;;;;6.10;2.42;;;21.20;61.60;;;;;;5031323;28;20708;-69
2022/03/21 12:54:06;;;;;;;9.75;2.80;;;21.20;61.60;;;;;;5028028;28;20220;-67
2022/03/21 12:56:41;;;;;;;9.80;3.08;;;21.20;61.50;;;;;;5011754;28;20751;-63
2022/03/21 12:59:14;;;;;;;8.68;2.55;;;21.20;61.80;;;;;;5008528;28;20300;-63
2022/03/21 13:01:46;;;;;;;7.47;2.80;;;21.10;61.70;;;;;;5008879;28;20223;-68
2022/03/21 13:12:42;;;;;;;7.43;2.40;;;21.10;62.30;;;;;;5009723;28;20243;-68
2022/03/21 13:15:19;;;;;;;7.70;2.45;;;21.10;61.60;;;;;;5010258;28;20302;-68
2022/03/21 13:17:57;;;;;;;9.18;2.65;;;21.10;61.80;;;;;;5011385;28;20227;-69
2022/03/21 13:20:29;;;;;;;8.70;2.47;;;21.10;61.90;;;;;;5027817;28;20279;-69
2022/03/21 13:23:01;;;;;;;7.88;2.83;;;21.10;61.90;;;;;;5030449;28;20200;-65
2022/03/21 13:25:34;;;;;;;7.43;2.40;;;21.10;61.90;;;;;;5021754;28;20201;-69
2022/03/21 13:28:19;;;;;;;6.93;2.42;;;21.10;62.00;;;;;;5010920;28;20212;-62
2022/03/21 13:30:58;;;;;;;7.18;2.42;;;21.10;62.00;;;;;;5011251;28;20204;-66
2022/03/21 13:33:30;;;;;;;7.90;2.88;;;21.10;61.90;;;;;;5009794;28;20275;-69
2022/03/21 13:36:02;;;;;;;9.20;2.83;;;21.10;61.70;;;;;;5010500;28;20201;-68
2022/03/21 13:38:34;;;;;;;7.45;2.47;;;21.10;62.40;;;;;;5010752;28;20266;-68
2022/03/21 13:41:04;;;;;;;5.72;2.20;;;21.10;61.70;;;;;;5010296;28;20228;-65
2022/03/21 13:43:37;;;;;;;7.43;2.53;;;21.10;61.60;;;;;;5010774;28;20240;-68
2022/03/21 13:46:07;;;;;;;7.95;2.67;;;21.10;61.60;;;;;;5010166;28;20291;-65
2022/03/21 13:48:42;;;;;;;9.32;2.13;;;21.10;61.50;;;;;;5009955;28;20719;-68
2022/03/21 13:51:22;;;;;;;7.07;2.53;;;21.10;61.50;;;;;;5009914;28;20204;-62
2022/03/21 13:54:10;;;;;;;6.97;2.75;;;21.10;62.20;;;;;;5009904;28;20224;-68
2022/03/21 13:56:41;;;;;;;10.07;3.20;;;21.10;61.60;;;;;;5023859;28;20761;-65
2022/03/21 13:59:21;;;;;;;8.00;2.38;;;21.10;61.60;;;;;;5030050;28;20196;-67
2022/03/21 14:01:51;;;;;;;7.32;2.42;;;21.10;61.70;;;;;;5029617;28;20200;-69
2022/03/21 14:04:24;;;;;;;6.45;2.60;;;21.10;61.80;;;;;;5029386;28;20188;-68
2022/03/21 14:07:02;;;;;;;5.80;2.22;;;21.10;61.90;;;;;;5029214;28;20218;-66